sensor_id;sensor_type;location;lat;lon;timestamp;pressure;altitude;pressure_sealevel;temperature;humidity
29879;BME280;16752;53.364;-1.488;2023-03-18T00:01:03;99048.97;;;16.99;51.73
29879;BME280;16752;53.364;-1.488;2023-03-18T00:04:06;99136.84;;;17.48;51.87
29879;BME280;16752;53.364;-1.488;2023-03-18T00:07:41;99127.38;;;17.23;52.42
29879;BME280;16752;53.364;-1.488;2023-03-18T00:10:52;99081.75;;;17.21;51.70
29879;BME280;16752;53.364;-1.488;2023-03-18T00:17:28;99003.94;;;16.76;51.65
29879;BME280;16752;53.364;-1.488;2023-03-18T00:24:14;99068.53;;;17.13;51.72
29879;BME280;16752;53.364;-1.488;2023-03-18T00:27:56;99008.25;;;16.30;52.89
29879;BME280;16752;53.364;-1.488;2023-03-18T00:34:36;99010.94;;;16.61;52.61
29879;BME280;16752;53.364;-1.488;2023-03-18T00:37:48;99003.81;;;16.61;52.57
29879;BME280;16752;53.364;-1.488;2023-03-18T00:40:46;99087.38;;;17.18;52.41
29879;BME280;16752;53.364;-1.488;2023-03-18T00:44:07;99085.28;;;17.05;52.76
29879;BME280;16752;53.364;-1.488;2023-03-18T00:47:23;99136.56;;;17.66;51.80
29879;BME280;16752;53.364;-1.488;2023-03-18T00:54:06;99136.28;;;17.61;52.08
29879;BME280;16752;53.364;-1.488;2023-03-18T01:09:01;99068.53;;;17.13;52.28
29879;BME280;16752;53.364;-1.488;2023-03-18T01:30:49;99015.44;;;16.44;53.49
29879;BME280;16752;53.364;-1.488;2023-03-18T01:45:47;99142.41;;;17.53;52.51
29879;BME280;16752;53.364;-1.488;2023-03-18T01:53:05;99050.53;;;17.08;52.20
29879;BME280;16752;53.364;-1.488;2023-03-18T01:55:52;99128.16;;;17.62;52.38
29879;BME280;16752;53.364;-1.488;2023-03-18T01:59:10;99048.97;;;16.91;53.25
29879;BME280;16752;53.364;-1.488;2023-03-18T09:11:37;99177.13;;;18.12;48.42
29879;BME280;16752;53.364;-1.488;2023-03-18T09:14:37;99264.72;;;18.87;47.80
29879;BME280;16752;53.364;-1.488;2023-03-18T09:17:26;99226.09;;;18.62;47.82
29879;BME280;16752;53.364;-1.488;2023-03-18T09:20:47;99294.22;;;18.70;49.69
29879;BME280;16752;53.364;-1.488;2023-03-18T11:38:44;99316.03;;;20.34;42.49
29879;BME280;16752;53.364;-1.488;2023-03-18T12:11:13;99183.66;;;19.87;42.32
29879;BME280;16752;53.364;-1.488;2023-03-18T12:25:06;99313.44;;;19.83;43.45
29879;BME280;16752;53.364;-1.488;2023-03-18T12:31:51;99162.84;;;18.36;44.72
29879;BME280;16752;53.364;-1.488;2023-03-18T12:48:44;99163.09;;;19.74;42.17
29879;BME280;16752;53.364;-1.488;2023-03-18T12:51:43;99222.56;;;19.94;43.06
29879;BME280;16752;53.364;-1.488;2023-03-18T12:55:04;99305.59;;;21.24;41.57
29879;BME280;16752;53.364;-1.488;2023-03-18T12:58:01;99217.78;;;20.47;43.74
29879;BME280;16752;53.364;-1.488;2023-03-18T13:01:04;99217.03;;;21.22;41.36
29879;BME280;16752;53.364;-1.488;2023-03-18T13:03:54;99210.41;;;21.05;40.76
29879;BME280;16752;53.364;-1.488;2023-03-18T13:06:46;99235.72;;;22.38;38.47
29879;BME280;16752;53.364;-1.488;2023-03-18T13:15:19;99288.38;;;21.61;39.38
29879;BME280;16752;53.364;-1.488;2023-03-18T13:45:43;99211.88;;;23.02;37.67
29879;BME280;16752;53.364;-1.488;2023-03-18T13:48:30;99163.59;;;23.42;36.50
29879;BME280;16752;53.364;-1.488;2023-03-18T13:54:16;99271.25;;;22.84;37.24
29879;BME280;16752;53.364;-1.488;2023-03-18T14:00:50;99271.84;;;23.06;37.93
29879;BME280;16752;53.364;-1.488;2023-03-18T14:17:48;99187.03;;;22.69;37.08
29879;BME280;16752;53.364;-1.488;2023-03-18T14:20:42;99181.81;;;23.13;35.95
29879;BME280;16752;53.364;-1.488;2023-03-18T14:26:22;99117.84;;;21.81;36.65
29879;BME280;16752;53.364;-1.488;2023-03-18T14:35:16;99182.59;;;21.14;39.12
29879;BME280;16752;53.364;-1.488;2023-03-18T14:56:51;99113.97;;;20.68;40.13
29879;BME280;16752;53.364;-1.488;2023-03-18T15:00:23;99109.31;;;20.42;40.45
29879;BME280;16752;53.364;-1.488;2023-03-18T15:03:32;99243.59;;;20.74;42.17
29879;BME280;16752;53.364;-1.488;2023-03-18T15:06:28;99240.06;;;21.71;40.77
29879;BME280;16752;53.364;-1.488;2023-03-18T15:09:46;99235.94;;;24.36;38.45
29879;BME280;16752;53.364;-1.488;2023-03-18T15:13:28;99137.72;;;24.98;33.49
29879;BME280;16752;53.364;-1.488;2023-03-18T15:16:22;99189.47;;;26.26;33.42
29879;BME280;16752;53.364;-1.488;2023-03-18T18:16:36;99258.84;;;19.21;39.71
29879;BME280;16752;53.364;-1.488;2023-03-18T18:19:24;99281.31;;;18.44;41.58
29879;BME280;16752;53.364;-1.488;2023-03-18T18:36:22;99432.84;;;19.70;43.51
29879;BME280;16752;53.364;-1.488;2023-03-18T18:39:19;99368.81;;;19.27;43.67
29879;BME280;16752;53.364;-1.488;2023-03-18T18:42:04;99285.75;;;18.89;43.96
29879;BME280;16752;53.364;-1.488;2023-03-18T18:47:54;99431.69;;;19.12;46.86
29879;BME280;16752;53.364;-1.488;2023-03-18T18:51:33;99426.03;;;19.52;45.86
29879;BME280;16752;53.364;-1.488;2023-03-18T18:54:47;99260.19;;;18.50;45.78
29879;BME280;16752;53.364;-1.488;2023-03-18T18:58:42;99277.28;;;18.48;46.34
29879;BME280;16752;53.364;-1.488;2023-03-18T19:01:42;99267.97;;;18.29;47.07
29879;BME280;16752;53.364;-1.488;2023-03-18T19:04:39;99446.97;;;19.33;46.78
29879;BME280;16752;53.364;-1.488;2023-03-18T19:07:44;99446.13;;;19.32;47.35
29879;BME280;16752;53.364;-1.488;2023-03-18T19:15:06;99456.16;;;19.22;47.90
29879;BME280;16752;53.364;-1.488;2023-03-18T19:18:24;99452.50;;;19.23;48.12
29879;BME280;16752;53.364;-1.488;2023-03-18T19:21:43;99390.47;;;18.78;48.03
29879;BME280;16752;53.364;-1.488;2023-03-18T19:30:25;99456.41;;;18.67;49.58
29879;BME280;16752;53.364;-1.488;2023-03-18T19:33:22;99320.97;;;18.06;48.36
29879;BME280;16752;53.364;-1.488;2023-03-18T19:36:29;99284.97;;;17.89;48.60
29879;BME280;16752;53.364;-1.488;2023-03-18T19:54:32;99410.72;;;18.48;48.36
29879;BME280;16752;53.364;-1.488;2023-03-18T19:57:25;99434.53;;;18.56;48.30
29879;BME280;16752;53.364;-1.488;2023-03-18T20:00:40;99469.81;;;18.65;48.22
29879;BME280;16752;53.364;-1.488;2023-03-18T20:03:25;99444.97;;;18.27;48.65
29879;BME280;16752;53.364;-1.488;2023-03-18T20:06:10;99372.19;;;17.98;48.58
29879;BME280;16752;53.364;-1.488;2023-03-18T20:08:53;99471.31;;;18.59;48.36
29879;BME280;16752;53.364;-1.488;2023-03-18T20:11:37;99376.53;;;17.91;48.80
29879;BME280;16752;53.364;-1.488;2023-03-18T20:14:29;99384.50;;;17.83;48.84
29879;BME280;16752;53.364;-1.488;2023-03-18T20:20:06;99385.69;;;17.81;48.55
29879;BME280;16752;53.364;-1.488;2023-03-18T20:23:00;99479.31;;;18.12;48.91
29879;BME280;16752;53.364;-1.488;2023-03-18T20:25:48;99396.47;;;17.55;48.91
29879;BME280;16752;53.364;-1.488;2023-03-18T20:28:37;99445.78;;;17.72;49.03
29879;BME280;16752;53.364;-1.488;2023-03-18T20:31:23;99463.16;;;17.66;49.10
29879;BME280;16752;53.364;-1.488;2023-03-18T20:34:07;99501.84;;;18.00;49.00
29879;BME280;16752;53.364;-1.488;2023-03-18T20:36:51;99411.25;;;17.00;48.98
29879;BME280;16752;53.364;-1.488;2023-03-18T20:39:35;99412.53;;;17.53;47.90
29879;BME280;16752;53.364;-1.488;2023-03-18T20:42:20;99436.34;;;17.61;48.05
29879;BME280;16752;53.364;-1.488;2023-03-18T20:45:08;99433.06;;;17.67;48.22
29879;BME280;16752;53.364;-1.488;2023-03-18T20:47:55;99481.50;;;17.92;48.02
29879;BME280;16752;53.364;-1.488;2023-03-18T20:50:40;99434.56;;;17.46;48.99
29879;BME280;16752;53.364;-1.488;2023-03-18T20:53:28;99528.56;;;17.90;48.56
29879;BME280;16752;53.364;-1.488;2023-03-18T20:56:13;99482.72;;;17.82;47.91
29879;BME280;16752;53.364;-1.488;2023-03-18T20:58:59;99452.13;;;17.38;47.81
29879;BME280;16752;53.364;-1.488;2023-03-18T21:01:47;99500.75;;;17.29;46.94
29879;BME280;16752;53.364;-1.488;2023-03-18T21:04:31;99483.88;;;16.56;48.61
29879;BME280;16752;53.364;-1.488;2023-03-18T21:07:15;99568.75;;;17.21;46.46
29879;BME280;16752;53.364;-1.488;2023-03-18T21:09:59;99493.22;;;16.76;46.41
29879;BME280;16752;53.364;-1.488;2023-03-18T21:12:44;99478.56;;;16.47;47.32
29879;BME280;16752;53.364;-1.488;2023-03-18T21:15:29;99528.16;;;16.54;47.49
29879;BME280;16752;53.364;-1.488;2023-03-18T21:18:13;99528.38;;;15.74;47.23
29879;BME280;16752;53.364;-1.488;2023-03-18T21:20:58;99537.34;;;16.41;46.46
29879;BME280;16752;53.364;-1.488;2023-03-18T21:23:42;99463.97;;;16.35;44.91
29879;BME280;16752;53.364;-1.488;2023-03-18T21:26:26;99466.97;;;15.72;46.32
29879;BME280;16752;53.364;-1.488;2023-03-18T21:29:10;99451.91;;;15.03;48.29
29879;BME280;16752;53.364;-1.488;2023-03-18T21:31:55;99435.25;;;15.64;45.76
29879;BME280;16752;53.364;-1.488;2023-03-18T21:34:39;99510.63;;;15.84;45.65
29879;BME280;16752;53.364;-1.488;2023-03-18T21:37:25;99404.44;;;14.67;46.10
29879;BME280;16752;53.364;-1.488;2023-03-18T21:40:14;99531.16;;;15.73;45.75
29879;BME280;16752;53.364;-1.488;2023-03-18T21:46:21;99421.22;;;15.20;45.37
29879;BME280;16752;53.364;-1.488;2023-03-18T21:49:07;99423.91;;;14.29;47.33
29879;BME280;16752;53.364;-1.488;2023-03-18T21:51:51;99498.44;;;15.48;46.09
29879;BME280;16752;53.364;-1.488;2023-03-18T21:54:35;99499.03;;;14.71;46.25
29879;BME280;16752;53.364;-1.488;2023-03-18T21:57:40;99487.47;;;14.99;46.74
29879;BME280;16752;53.364;-1.488;2023-03-18T22:00:24;99530.63;;;15.51;45.40
29879;BME280;16752;53.364;-1.488;2023-03-18T22:03:16;99404.47;;;14.13;45.16
29879;BME280;16752;53.364;-1.488;2023-03-18T22:06:04;99440.28;;;14.60;45.08
29879;BME280;16752;53.364;-1.488;2023-03-18T22:08:49;99487.19;;;14.75;45.07
29879;BME280;16752;53.364;-1.488;2023-03-18T22:11:47;99498.34;;;14.68;45.53
29879;BME280;16752;53.364;-1.488;2023-03-18T22:14:31;99487.09;;;14.12;46.16
29879;BME280;16752;53.364;-1.488;2023-03-18T22:17:26;99590.94;;;15.11;44.31
29879;BME280;16752;53.364;-1.488;2023-03-18T22:20:19;99589.47;;;15.44;43.35
29879;BME280;16752;53.364;-1.488;2023-03-18T22:23:15;99532.19;;;14.46;45.40
29879;BME280;16752;53.364;-1.488;2023-03-18T22:26:14;99518.16;;;14.55;44.63
29879;BME280;16752;53.364;-1.488;2023-03-18T22:29:28;99482.22;;;14.54;44.82
29879;BME280;16752;53.364;-1.488;2023-03-18T22:32:50;99579.88;;;15.07;45.32
29879;BME280;16752;53.364;-1.488;2023-03-18T22:35:34;99626.44;;;14.98;45.45
29879;BME280;16752;53.364;-1.488;2023-03-18T22:38:30;99578.03;;;14.06;46.33
29879;BME280;16752;53.364;-1.488;2023-03-18T22:41:37;99625.75;;;14.96;45.68
29879;BME280;16752;53.364;-1.488;2023-03-18T22:44:22;99474.19;;;14.18;44.41
29879;BME280;16752;53.364;-1.488;2023-03-18T22:47:22;99552.72;;;14.97;44.60
29879;BME280;16752;53.364;-1.488;2023-03-18T22:50:07;99513.88;;;14.44;44.79
29879;BME280;16752;53.364;-1.488;2023-03-18T22:52:59;99457.09;;;14.77;42.70
29879;BME280;16752;53.364;-1.488;2023-03-18T22:55:45;99561.03;;;15.20;43.56
29879;BME280;16752;53.364;-1.488;2023-03-18T22:58:29;99544.94;;;14.78;43.78
29879;BME280;16752;53.364;-1.488;2023-03-18T23:01:18;99552.63;;;14.24;44.52
29879;BME280;16752;53.364;-1.488;2023-03-18T23:04:14;99649.16;;;14.72;44.46
29879;BME280;16752;53.364;-1.488;2023-03-18T23:07:01;99584.72;;;14.57;44.25
29879;BME280;16752;53.364;-1.488;2023-03-18T23:09:53;99671.88;;;14.17;45.03
29879;BME280;16752;53.364;-1.488;2023-03-18T23:12:43;99571.97;;;14.80;42.83
29879;BME280;16752;53.364;-1.488;2023-03-18T23:15:30;99519.72;;;14.38;42.97
29879;BME280;16752;53.364;-1.488;2023-03-18T23:18:45;99677.44;;;15.35;42.85
29879;BME280;16752;53.364;-1.488;2023-03-18T23:21:36;99492.31;;;14.21;42.61
29879;BME280;16752;53.364;-1.488;2023-03-18T23:24:36;99598.44;;;14.88;40.93
29879;BME280;16752;53.364;-1.488;2023-03-18T23:27:47;99679.28;;;15.52;40.87
29879;BME280;16752;53.364;-1.488;2023-03-18T23:30:33;99532.84;;;14.11;42.42
29879;BME280;16752;53.364;-1.488;2023-03-18T23:33:18;99590.38;;;14.05;41.86
29879;BME280;16752;53.364;-1.488;2023-03-18T23:36:25;99699.22;;;15.19;41.96
29879;BME280;16752;53.364;-1.488;2023-03-18T23:39:12;99545.38;;;14.36;41.67
29879;BME280;16752;53.364;-1.488;2023-03-18T23:45:05;99655.91;;;15.12;40.86
29879;BME280;16752;53.364;-1.488;2023-03-18T23:47:55;99594.59;;;14.45;41.76
29879;BME280;16752;53.364;-1.488;2023-03-18T23:50:44;99596.47;;;14.62;41.35
29879;BME280;16752;53.364;-1.488;2023-03-18T23:53:33;99715.94;;;15.55;40.66
29879;BME280;16752;53.364;-1.488;2023-03-18T23:56:23;99694.19;;;15.25;41.39
29879;BME280;16752;53.364;-1.488;2023-03-18T23:59:18;99728.84;;;15.58;40.48
